createdAt,value
2019-03-30T00:00:01.258Z,22.40
2019-03-30T00:02:35.766Z,23.32
2019-03-30T00:05:08.718Z,22.60
2019-03-30T00:07:40.282Z,24.05
2019-03-30T00:10:11.400Z,23.35
2019-03-30T00:12:42.400Z,23.30
2019-03-30T00:15:13.239Z,22.32
2019-03-30T00:17:44.192Z,21.93
2019-03-30T00:20:15.248Z,23.85
2019-03-30T00:22:46.232Z,22.58
2019-03-30T00:25:18.860Z,23.20
2019-03-30T00:27:50.974Z,25.25
2019-03-30T00:30:21.838Z,23.47
2019-03-30T00:32:52.719Z,24.75
2019-03-30T00:35:23.658Z,24.23
2019-03-30T00:37:54.695Z,23.50
2019-03-30T00:40:25.699Z,23.77
2019-03-30T00:42:56.635Z,23.50
2019-03-30T00:45:27.487Z,22.98
2019-03-30T00:47:58.994Z,21.70
2019-03-30T00:50:29.979Z,21.40
2019-03-30T00:53:01.672Z,19.50
2019-03-30T00:55:32.636Z,16.80
2019-03-30T00:58:03.609Z,18.70
2019-03-30T01:00:35.154Z,18.37
2019-03-30T01:03:06.110Z,17.02
2019-03-30T01:05:38.884Z,16.15
2019-03-30T01:08:09.861Z,15.83
2019-03-30T01:10:40.752Z,16.70
2019-03-30T01:13:11.607Z,16.60
2019-03-30T01:15:42.564Z,18.32
2019-03-30T01:18:14.023Z,17.95
2019-03-30T01:20:44.979Z,18.82
2019-03-30T01:23:16.055Z,19.48
2019-03-30T01:25:47.220Z,18.62
2019-03-30T01:28:18.231Z,20.57
2019-03-30T01:30:49.106Z,19.20
2019-03-30T01:33:20.078Z,21.85
2019-03-30T01:35:51.027Z,21.25
2019-03-30T01:38:21.889Z,20.52
2019-03-30T01:40:53.137Z,20.52
2019-03-30T01:43:24.302Z,22.27
2019-03-30T01:45:55.269Z,21.97
2019-03-30T01:48:26.282Z,20.37
2019-03-30T01:50:57.285Z,21.82
2019-03-30T01:53:28.235Z,20.55
2019-03-30T01:55:59.875Z,22.62
2019-03-30T01:58:30.778Z,22.13
2019-03-30T02:01:02.741Z,20.97
2019-03-30T02:03:33.711Z,22.22
2019-03-30T02:06:05.920Z,22.22
2019-03-30T02:08:36.919Z,23.02
2019-03-30T02:11:07.796Z,22.27
2019-03-30T02:13:38.755Z,21.75
2019-03-30T02:16:09.864Z,21.42
2019-03-30T02:18:40.859Z,21.37
2019-03-30T02:21:11.649Z,20.95
2019-03-30T02:23:42.907Z,20.88
2019-03-30T02:26:13.843Z,19.87
2019-03-30T02:28:44.814Z,21.00
2019-03-30T02:31:27.297Z,21.42
2019-03-30T02:33:58.468Z,21.52
2019-03-30T02:36:30.535Z,22.73
2019-03-30T02:39:01.476Z,20.85
2019-03-30T02:41:34.173Z,22.02
2019-03-30T02:44:05.171Z,23.90
2019-03-30T02:46:36.325Z,22.17
2019-03-30T02:49:07.298Z,21.57
2019-03-30T02:51:38.144Z,22.00
2019-03-30T02:54:09.098Z,23.20
2019-03-30T02:56:39.959Z,20.95
2019-03-30T02:59:10.919Z,24.57
2019-03-30T03:01:41.944Z,24.25
2019-03-30T03:04:12.949Z,23.30
2019-03-30T03:06:45.507Z,24.45
2019-03-30T03:09:16.462Z,23.57
2019-03-30T03:11:47.476Z,25.02
2019-03-30T03:14:18.401Z,25.37
2019-03-30T03:16:49.763Z,22.65
2019-03-30T03:19:20.723Z,23.30
2019-03-30T03:21:51.695Z,22.75
2019-03-30T03:24:22.665Z,25.12
2019-03-30T03:26:53.604Z,24.00
2019-03-30T03:29:24.565Z,25.75
2019-03-30T03:31:56.221Z,25.35
2019-03-30T03:34:27.102Z,23.62
2019-03-30T03:36:58.048Z,25.68
2019-03-30T03:39:28.997Z,25.60
2019-03-30T03:42:01.795Z,24.75
2019-03-30T03:44:32.770Z,24.95
2019-03-30T03:47:03.707Z,26.37
2019-03-30T03:49:34.587Z,25.80
2019-03-30T03:52:07.000Z,25.77
2019-03-30T03:54:39.905Z,26.48
2019-03-30T03:57:13.137Z,26.17
2019-03-30T03:59:44.480Z,26.73
2019-03-30T04:02:16.941Z,26.40
2019-03-30T04:04:49.810Z,27.17
2019-03-30T04:07:23.369Z,24.75
2019-03-30T04:09:57.661Z,24.65
2019-03-30T04:12:29.475Z,24.60
2019-03-30T04:15:03.143Z,24.37
2019-03-30T04:17:34.256Z,25.48
2019-03-30T04:20:06.282Z,24.52
2019-03-30T04:22:37.157Z,24.52
2019-03-30T04:25:09.917Z,26.07
2019-03-30T04:27:40.801Z,25.77
2019-03-30T04:30:11.842Z,24.95
2019-03-30T04:32:43.763Z,26.35
2019-03-30T04:35:14.620Z,27.90
2019-03-30T04:37:45.556Z,26.17
2019-03-30T04:40:19.563Z,25.88
2019-03-30T04:42:50.843Z,26.97
2019-03-30T04:45:21.800Z,26.00
2019-03-30T04:47:54.927Z,27.60
2019-03-30T04:50:28.431Z,28.02
2019-03-30T04:53:04.731Z,28.65
2019-03-30T04:55:39.954Z,28.67
2019-03-30T04:58:14.184Z,26.82
2019-03-30T05:00:49.202Z,27.40
2019-03-30T05:03:22.991Z,27.90
2019-03-30T05:05:56.678Z,30.57
2019-03-30T05:08:30.433Z,32.08
2019-03-30T05:11:05.255Z,31.55
2019-03-30T05:13:41.427Z,31.80
2019-03-30T05:16:14.607Z,30.70
2019-03-30T05:18:46.416Z,29.37
2019-03-30T05:21:22.180Z,33.50
2019-03-30T05:23:54.280Z,34.73
2019-03-30T05:26:27.583Z,40.90
2019-03-30T05:29:09.618Z,42.23
2019-03-30T05:31:42.886Z,39.98
2019-03-30T05:34:17.306Z,38.53
2019-03-30T05:36:50.462Z,37.73
2019-03-30T05:39:24.542Z,40.20
2019-03-30T05:41:56.735Z,42.05
2019-03-30T05:44:31.859Z,41.85
2019-03-30T05:47:04.722Z,43.42
2019-03-30T05:49:37.110Z,40.38
2019-03-30T05:52:09.912Z,38.80
2019-03-30T05:54:45.097Z,39.42
2019-03-30T05:57:18.859Z,35.20
2019-03-30T05:59:55.832Z,38.78
2019-03-30T06:02:27.620Z,34.23
2019-03-30T06:05:03.753Z,32.15
2019-03-30T06:07:35.595Z,29.10
2019-03-30T06:10:08.396Z,29.98
2019-03-30T06:12:42.107Z,32.38
2019-03-30T06:15:17.101Z,31.20
2019-03-30T06:17:51.163Z,27.82
2019-03-30T06:20:25.113Z,30.35
2019-03-30T06:22:57.811Z,25.68
2019-03-30T06:25:30.219Z,26.68
2019-03-30T06:28:14.046Z,31.70
2019-03-30T06:30:49.720Z,29.37
2019-03-30T06:33:22.195Z,33.40
2019-03-30T06:35:55.231Z,34.30
2019-03-30T06:38:28.363Z,32.65
2019-03-30T06:41:04.691Z,37.70
2019-03-30T06:43:37.497Z,36.63
2019-03-30T06:46:11.811Z,39.45
2019-03-30T06:48:43.621Z,36.77
2019-03-30T06:51:17.282Z,36.08
2019-03-30T06:53:51.084Z,35.23
2019-03-30T06:56:22.808Z,36.80
2019-03-30T06:58:56.147Z,35.68
2019-03-30T07:01:30.339Z,34.30
2019-03-30T07:04:05.740Z,35.15
2019-03-30T07:06:40.202Z,37.60
2019-03-30T07:09:15.909Z,34.63
2019-03-30T07:11:50.015Z,34.53
2019-03-30T07:14:28.634Z,32.88
2019-03-30T07:17:03.930Z,41.98
2019-03-30T07:19:40.129Z,36.17
2019-03-30T07:22:11.059Z,35.85
2019-03-30T07:24:44.095Z,37.33
2019-03-30T07:27:20.395Z,36.93
2019-03-30T07:29:55.488Z,35.17
2019-03-30T07:32:26.691Z,41.83
2019-03-30T07:34:57.618Z,35.75
2019-03-30T07:37:29.068Z,38.38
2019-03-30T07:40:00.052Z,35.58
2019-03-30T07:42:34.532Z,35.13
2019-03-30T07:45:08.021Z,35.80
2019-03-30T07:47:40.983Z,42.05
2019-03-30T07:50:14.699Z,34.92
2019-03-30T07:52:48.092Z,37.48
2019-03-30T07:55:25.312Z,35.35
2019-03-30T07:57:57.523Z,35.43
2019-03-30T08:00:31.079Z,42.98
2019-03-30T08:03:03.158Z,33.83
2019-03-30T08:05:36.672Z,33.60
2019-03-30T08:08:08.366Z,33.55
2019-03-30T08:10:43.268Z,33.45
2019-03-30T08:13:16.656Z,33.28
2019-03-30T08:15:48.015Z,32.33
2019-03-30T08:18:19.739Z,33.25
2019-03-30T08:20:54.845Z,32.50
2019-03-30T08:23:39.520Z,39.18
2019-03-30T08:25:59.769Z,31.75
2019-03-30T08:28:32.163Z,32.85
2019-03-30T08:31:04.248Z,32.93
2019-03-30T08:33:37.294Z,38.53
2019-03-30T08:36:11.805Z,34.83
2019-03-30T08:38:45.534Z,35.43
2019-03-30T08:41:21.356Z,35.23
2019-03-30T08:43:52.248Z,33.78
2019-03-30T08:46:23.233Z,40.78
2019-03-30T08:48:54.474Z,38.63
2019-03-30T08:51:25.442Z,39.90
2019-03-30T08:53:56.279Z,36.15
2019-03-30T08:56:28.134Z,38.20
2019-03-30T08:58:59.112Z,43.68
2019-03-30T09:01:30.107Z,40.08
2019-03-30T09:04:01.036Z,39.25
2019-03-30T09:06:32.891Z,45.12
2019-03-30T09:09:06.124Z,39.18
2019-03-30T09:11:37.421Z,40.48
2019-03-30T09:14:08.659Z,42.80
2019-03-30T09:16:40.032Z,40.55
2019-03-30T09:19:11.035Z,49.55
2019-03-30T09:21:43.723Z,40.83
2019-03-30T09:24:14.651Z,47.65
2019-03-30T09:26:45.599Z,42.27
2019-03-30T09:29:16.523Z,42.08
2019-03-30T09:31:47.516Z,43.38
2019-03-30T09:34:18.451Z,43.70
2019-03-30T09:36:49.579Z,43.33
2019-03-30T09:39:20.699Z,41.65
2019-03-30T09:41:52.082Z,52.48
2019-03-30T09:44:23.916Z,44.98
2019-03-30T09:46:54.893Z,45.83
2019-03-30T09:49:26.563Z,43.45
2019-03-30T09:51:57.415Z,46.10
2019-03-30T09:54:28.358Z,45.73
2019-03-30T09:56:59.343Z,44.53
2019-03-30T09:59:30.284Z,44.55
2019-03-30T10:02:01.416Z,45.75
2019-03-30T10:04:32.367Z,55.80
2019-03-30T10:07:03.935Z,48.25
2019-03-30T10:09:34.809Z,52.17
2019-03-30T10:12:05.846Z,48.90
2019-03-30T10:14:36.908Z,54.45
2019-03-30T10:17:07.913Z,48.98
2019-03-30T10:19:38.755Z,47.90
2019-03-30T10:22:09.615Z,51.83
2019-03-30T10:24:41.346Z,48.95
2019-03-30T10:27:12.257Z,51.25
2019-03-30T10:29:43.246Z,57.03
2019-03-30T10:32:14.163Z,53.10
2019-03-30T10:34:45.111Z,49.10
2019-03-30T10:37:16.478Z,52.33
2019-03-30T10:39:47.421Z,57.58
2019-03-30T10:42:18.415Z,53.17
2019-03-30T10:44:50.421Z,62.40
2019-03-30T10:47:22.156Z,55.63
2019-03-30T10:49:53.167Z,53.40
2019-03-30T10:52:24.104Z,52.88
2019-03-30T10:54:55.319Z,52.88
2019-03-30T10:57:26.291Z,53.60
2019-03-30T10:59:57.286Z,52.38
2019-03-30T11:02:28.282Z,61.30
2019-03-30T11:04:59.336Z,54.63
2019-03-30T11:07:30.327Z,53.87
2019-03-30T11:10:03.081Z,52.65
2019-03-30T11:12:34.083Z,63.70
2019-03-30T11:15:05.377Z,55.00
2019-03-30T11:17:36.371Z,54.15
2019-03-30T11:20:07.763Z,53.85
2019-03-30T11:22:39.153Z,57.85
2019-03-30T11:25:10.370Z,59.27
2019-03-30T11:27:41.459Z,56.98
2019-03-30T11:30:12.374Z,62.62
2019-03-30T11:32:43.254Z,60.85
2019-03-30T11:35:14.216Z,63.55
2019-03-30T11:37:45.191Z,69.77
2019-03-30T11:40:16.222Z,59.70
2019-03-30T11:42:47.184Z,61.65
2019-03-30T11:45:18.558Z,59.85
2019-03-30T11:47:49.522Z,61.53
2019-03-30T11:50:20.445Z,64.45
2019-03-30T11:52:51.428Z,56.53
2019-03-30T11:55:22.647Z,57.90
2019-03-30T11:57:53.674Z,60.20
2019-03-30T12:00:24.750Z,58.45
2019-03-30T12:02:56.499Z,61.50
2019-03-30T12:05:27.515Z,64.90
2019-03-30T12:07:59.099Z,69.50
2019-03-30T12:10:30.169Z,55.67
2019-03-30T12:13:01.033Z,56.10
2019-03-30T12:15:32.390Z,56.45
2019-03-30T12:18:03.423Z,52.17
2019-03-30T12:20:34.416Z,51.77
2019-03-30T12:23:06.000Z,55.40
2019-03-30T12:25:37.950Z,52.75
2019-03-30T12:28:09.947Z,49.83
2019-03-30T12:30:40.887Z,51.05
2019-03-30T12:33:11.875Z,53.50
2019-03-30T12:35:42.803Z,51.77
2019-03-30T12:38:13.783Z,50.90
2019-03-30T12:40:44.839Z,47.13
2019-03-30T12:43:15.850Z,45.75
2019-03-30T12:45:46.723Z,52.58
2019-03-30T12:48:18.028Z,57.08
2019-03-30T12:50:48.982Z,63.70
2019-03-30T12:53:20.074Z,43.98
2019-03-30T12:55:51.098Z,44.60
2019-03-30T12:58:22.039Z,42.27
2019-03-30T13:00:53.919Z,40.90
2019-03-30T13:03:25.274Z,57.90
2019-03-30T13:05:56.233Z,45.12
2019-03-30T13:08:27.167Z,43.68
2019-03-30T13:10:58.128Z,46.35
2019-03-30T13:13:29.095Z,47.60
2019-03-30T13:16:00.216Z,46.83
2019-03-30T13:18:31.135Z,51.40
2019-03-30T13:21:02.395Z,50.03
2019-03-30T13:23:34.875Z,47.40
2019-03-30T13:26:06.439Z,54.15
2019-03-30T13:28:37.819Z,51.70
2019-03-30T13:31:08.854Z,50.78
2019-03-30T13:33:40.172Z,49.10
2019-03-30T13:36:11.560Z,49.93
2019-03-30T13:38:42.480Z,48.42
2019-03-30T13:41:14.356Z,45.85
2019-03-30T13:43:45.514Z,46.00
2019-03-30T13:46:16.462Z,45.08
2019-03-30T13:48:47.435Z,40.50
2019-03-30T13:51:18.280Z,39.80
2019-03-30T13:53:49.121Z,40.95
2019-03-30T13:56:20.894Z,36.30
2019-03-30T13:58:51.888Z,36.40
2019-03-30T14:01:22.824Z,35.08
2019-03-30T14:03:53.821Z,32.42
2019-03-30T14:06:25.056Z,25.70
2019-03-30T14:08:56.029Z,25.70
2019-03-30T14:11:26.966Z,26.37
2019-03-30T14:13:57.903Z,23.85
2019-03-30T14:16:28.852Z,20.55
2019-03-30T14:18:59.738Z,21.97
2019-03-30T14:21:30.582Z,21.52
2019-03-30T14:24:03.535Z,21.82
2019-03-30T14:26:34.791Z,23.32
2019-03-30T14:29:05.802Z,23.30
2019-03-30T14:31:36.763Z,23.10
2019-03-30T14:34:07.627Z,26.60
2019-03-30T14:36:38.468Z,28.73
2019-03-30T14:39:09.438Z,29.10
2019-03-30T14:41:40.231Z,29.25
2019-03-30T14:44:11.162Z,30.95
2019-03-30T14:46:43.674Z,30.15
2019-03-30T14:49:14.641Z,33.55
2019-03-30T14:51:46.847Z,35.25
2019-03-30T14:54:17.740Z,33.20
2019-03-30T14:56:48.750Z,34.67
2019-03-30T14:59:19.770Z,30.88
2019-03-30T15:01:50.691Z,29.65
2019-03-30T15:04:21.670Z,29.12
2019-03-30T15:06:52.606Z,29.65
2019-03-30T15:09:23.606Z,31.40
2019-03-30T15:11:55.431Z,31.70
2019-03-30T15:14:26.575Z,32.70
2019-03-30T15:16:57.771Z,33.60
2019-03-30T15:19:29.355Z,34.73
2019-03-30T15:22:00.304Z,34.48
2019-03-30T15:24:31.278Z,34.80
2019-03-30T15:27:02.267Z,33.98
2019-03-30T15:29:33.195Z,34.90
2019-03-30T15:32:04.211Z,33.83
2019-03-30T15:34:37.135Z,35.55
2019-03-30T15:37:08.074Z,33.28
2019-03-30T15:39:39.176Z,32.90
2019-03-30T15:42:10.099Z,34.43
2019-03-30T15:44:40.967Z,34.38
2019-03-30T15:47:12.977Z,33.53
2019-03-30T15:49:43.956Z,35.38
2019-03-30T15:52:14.894Z,34.53
2019-03-30T15:54:45.836Z,35.45
2019-03-30T15:57:16.897Z,35.55
2019-03-30T15:59:48.517Z,34.33
2019-03-30T16:02:19.807Z,42.30
2019-03-30T16:04:50.784Z,36.35
2019-03-30T16:07:22.400Z,38.78
2019-03-30T16:09:53.471Z,38.28
2019-03-30T16:12:24.363Z,36.83
2019-03-30T16:14:56.833Z,41.90
2019-03-30T16:17:29.691Z,36.80
2019-03-30T16:20:00.604Z,44.40
2019-03-30T16:22:32.047Z,36.85
2019-03-30T16:25:04.071Z,37.65
2019-03-30T16:27:38.874Z,41.68
2019-03-30T16:30:09.873Z,39.95
2019-03-30T16:32:40.832Z,37.70
2019-03-30T16:35:11.952Z,39.05
2019-03-30T16:37:42.923Z,34.13
2019-03-30T16:40:14.545Z,37.28
2019-03-30T16:42:45.783Z,35.88
2019-03-30T16:45:18.497Z,34.20
2019-03-30T16:47:57.039Z,32.28
2019-03-30T16:50:28.765Z,32.67
2019-03-30T16:52:59.819Z,35.03
2019-03-30T16:55:30.879Z,35.63
2019-03-30T16:58:01.755Z,40.90
2019-03-30T17:00:36.177Z,43.63
2019-03-30T17:03:08.712Z,39.88
2019-03-30T17:05:40.451Z,41.75
2019-03-30T17:08:11.379Z,42.50
2019-03-30T17:10:42.683Z,41.88
2019-03-30T17:13:14.218Z,41.37
2019-03-30T17:15:45.399Z,41.63
2019-03-30T17:18:17.159Z,42.33
2019-03-30T17:20:48.204Z,39.63
2019-03-30T17:23:19.351Z,42.13
2019-03-30T17:25:50.459Z,42.20
2019-03-30T17:28:21.605Z,47.35
2019-03-30T17:30:52.471Z,39.67
2019-03-30T17:33:23.405Z,41.00
2019-03-30T17:35:54.373Z,59.58
2019-03-30T17:38:26.346Z,121.47
2019-03-30T17:40:57.634Z,73.05
2019-03-30T17:43:28.882Z,70.12
2019-03-30T17:46:00.149Z,57.85
2019-03-30T17:48:31.162Z,73.10
2019-03-30T17:51:02.079Z,58.95
2019-03-30T17:53:33.031Z,54.85
2019-03-30T17:56:04.077Z,46.00
2019-03-30T17:58:34.943Z,50.10
2019-03-30T18:01:06.039Z,105.58
2019-03-30T18:03:37.167Z,88.15
2019-03-30T18:06:10.738Z,66.62
2019-03-30T18:08:41.817Z,80.32
2019-03-30T18:11:12.901Z,79.03
2019-03-30T18:13:43.847Z,63.75
2019-03-30T18:16:14.892Z,51.65
2019-03-30T18:18:46.567Z,51.30
2019-03-30T18:21:17.699Z,53.83
2019-03-30T18:23:48.707Z,52.98
2019-03-30T18:26:19.570Z,51.68
2019-03-30T18:28:50.515Z,51.88
2019-03-30T18:31:21.736Z,56.33
2019-03-30T18:33:52.636Z,56.83
2019-03-30T18:36:25.954Z,64.90
2019-03-30T18:39:09.237Z,58.33
2019-03-30T18:41:33.383Z,52.15
2019-03-30T18:44:04.444Z,60.78
2019-03-30T18:46:35.398Z,53.92
2019-03-30T18:49:06.366Z,54.05
2019-03-30T18:51:38.383Z,54.60
2019-03-30T18:54:09.440Z,52.30
2019-03-30T18:56:40.368Z,51.53
2019-03-30T18:59:11.399Z,56.58
2019-03-30T19:01:42.474Z,65.62
2019-03-30T19:04:13.527Z,54.70
2019-03-30T19:06:45.663Z,55.05
2019-03-30T19:09:16.553Z,55.03
2019-03-30T19:11:47.419Z,55.78
2019-03-30T19:14:19.212Z,54.60
2019-03-30T19:16:50.930Z,52.70
2019-03-30T19:19:22.899Z,53.78
2019-03-30T19:21:53.927Z,53.90
2019-03-30T19:24:24.851Z,53.23
2019-03-30T19:26:55.724Z,54.35
2019-03-30T19:29:26.663Z,52.95
2019-03-30T19:31:57.641Z,53.25
2019-03-30T19:34:29.361Z,53.08
2019-03-30T19:37:00.405Z,54.58
2019-03-30T19:39:31.687Z,54.30
2019-03-30T19:42:02.658Z,53.92
2019-03-30T19:44:33.546Z,53.95
2019-03-30T19:47:05.315Z,52.33
2019-03-30T19:49:36.268Z,54.27
2019-03-30T19:52:07.628Z,53.68
2019-03-30T19:54:38.573Z,60.98
2019-03-30T19:57:09.473Z,55.80
2019-03-30T19:59:40.500Z,55.38
2019-03-30T20:02:12.200Z,58.35
2019-03-30T20:04:43.290Z,59.77
2019-03-30T20:07:14.208Z,53.73
2019-03-30T20:09:45.212Z,58.45
2019-03-30T20:12:16.120Z,51.53
2019-03-30T20:14:47.229Z,51.30
2019-03-30T20:17:18.320Z,55.38
2019-03-30T20:19:52.783Z,54.95
2019-03-30T20:22:23.827Z,53.68
2019-03-30T20:24:54.863Z,60.83
2019-03-30T20:27:25.862Z,55.73
2019-03-30T20:29:56.819Z,56.73
2019-03-30T20:32:27.755Z,64.00
2019-03-30T20:34:58.929Z,59.18
2019-03-30T20:37:29.897Z,56.83
2019-03-30T20:40:00.950Z,55.33
2019-03-30T20:42:32.054Z,57.62
2019-03-30T20:45:03.059Z,57.45
2019-03-30T20:47:35.439Z,60.28
2019-03-30T20:50:08.687Z,56.55
2019-03-30T20:52:39.611Z,56.83
2019-03-30T20:55:10.670Z,57.30
2019-03-30T20:57:41.656Z,59.25
2019-03-30T21:00:14.911Z,56.35
2019-03-30T21:02:45.869Z,57.45
2019-03-30T21:05:16.890Z,58.83
2019-03-30T21:07:47.824Z,58.50
2019-03-30T21:10:20.707Z,57.58
2019-03-30T21:12:51.901Z,58.73
2019-03-30T21:15:22.851Z,59.93
2019-03-30T21:17:53.697Z,57.48
2019-03-30T21:20:24.927Z,59.15
2019-03-30T21:22:55.810Z,59.98
2019-03-30T21:25:27.076Z,59.83
2019-03-30T21:27:58.841Z,59.80
2019-03-30T21:30:29.867Z,58.42
2019-03-30T21:33:00.775Z,58.85
2019-03-30T21:35:31.806Z,59.95
2019-03-30T21:38:04.199Z,60.43
2019-03-30T21:40:35.272Z,58.85
2019-03-30T21:43:06.235Z,58.75
2019-03-30T21:45:37.151Z,58.98
2019-03-30T21:48:08.065Z,60.03
2019-03-30T21:50:38.981Z,57.43
2019-03-30T21:53:11.906Z,54.65
2019-03-30T21:55:42.848Z,53.90
2019-03-30T21:58:14.227Z,54.83
2019-03-30T22:00:45.079Z,52.95
2019-03-30T22:03:16.330Z,52.88
2019-03-30T22:05:49.321Z,51.00
2019-03-30T22:08:20.385Z,48.92
2019-03-30T22:10:51.353Z,49.08
2019-03-30T22:13:22.396Z,45.48
2019-03-30T22:15:53.336Z,44.40
2019-03-30T22:18:24.231Z,42.98
2019-03-30T22:20:55.399Z,43.48
2019-03-30T22:23:26.355Z,38.73
2019-03-30T22:26:00.262Z,37.10
2019-03-30T22:28:31.124Z,36.38
2019-03-30T22:31:01.989Z,36.50
2019-03-30T22:33:33.773Z,35.38
2019-03-30T22:36:04.772Z,34.50
2019-03-30T22:38:35.783Z,34.15
2019-03-30T22:41:07.032Z,35.00
2019-03-30T22:43:38.393Z,33.78
2019-03-30T22:46:09.655Z,34.30
2019-03-30T22:48:40.491Z,34.18
2019-03-30T22:51:11.547Z,33.10
2019-03-30T22:53:42.549Z,31.75
2019-03-30T22:56:13.629Z,33.45
2019-03-30T22:58:44.572Z,31.73
2019-03-30T23:01:18.098Z,30.90
2019-03-30T23:03:50.656Z,30.88
2019-03-30T23:06:21.606Z,31.12
2019-03-30T23:08:52.590Z,29.98
2019-03-30T23:11:23.640Z,29.95
2019-03-30T23:13:55.519Z,28.35
2019-03-30T23:16:27.051Z,28.17
2019-03-30T23:18:59.070Z,27.65
2019-03-30T23:21:30.051Z,26.42
2019-03-30T23:24:02.215Z,25.05
2019-03-30T23:26:33.041Z,24.85
2019-03-30T23:29:04.139Z,23.57
2019-03-30T23:31:35.143Z,22.58
2019-03-30T23:34:06.103Z,22.05
2019-03-30T23:36:39.241Z,22.55
2019-03-30T23:39:10.654Z,24.12
2019-03-30T23:41:41.704Z,23.55
2019-03-30T23:44:12.647Z,23.90
2019-03-30T23:46:43.620Z,24.35
2019-03-30T23:49:15.432Z,21.50
2019-03-30T23:51:46.809Z,20.70
2019-03-30T23:54:19.458Z,20.17
2019-03-30T23:56:50.655Z,20.35
2019-03-30T23:59:22.122Z,21.23
